Time;durP1;ratioP1;P1;durP2;ratioP2;P2;SDS_P1;SDS_P2;PMS_P1;PMS_P2;Temp;Humidity;BMP_temperature;BMP_pressure;BME280_temperature;BME280_humidity;BME280_pressure;Samples;Min_cycle;Max_cycle;Signal;HPM_P1;HPM_P2
2022/01/08 00:02:16;;;;;;;30.38;13.38;;;1.60;99.90;;;;;;6154173;23;20078;-85
2022/01/08 00:04:41;;;;;;;26.85;12.15;;;1.60;99.90;;;;;;6173396;23;20017;-86
2022/01/08 00:07:55;;;;;;;22.98;11.85;;;1.60;99.90;;;;;;6168630;23;20450;-86
2022/01/08 00:10:41;;;;;;;25.42;12.07;;;1.60;99.90;;;;;;6195292;23;20427;-85
2022/01/08 00:13:10;;;;;;;25.40;11.63;;;1.60;99.90;;;;;;6168714;23;20013;-86
2022/01/08 00:15:36;;;;;;;25.92;12.35;;;1.60;99.90;;;;;;6150323;23;20027;-86
2022/01/08 00:18:02;;;;;;;26.30;10.93;;;1.60;99.90;;;;;;6148669;23;20017;-86
2022/01/08 00:20:29;;;;;;;27.63;11.65;;;1.60;99.90;;;;;;6151446;23;20496;-86
2022/01/08 00:22:56;;;;;;;27.23;11.77;;;1.60;99.90;;;;;;6172236;23;20012;-86
2022/01/08 00:25:22;;;;;;;29.05;11.70;;;1.60;99.90;;;;;;6174483;23;20067;-85
2022/01/08 00:27:48;;;;;;;27.55;11.25;;;1.50;99.90;;;;;;6175164;23;20048;-86
2022/01/08 00:30:17;;;;;;;31.88;13.23;;;1.60;99.90;;;;;;6148066;23;20024;-86
2022/01/08 00:32:45;;;;;;;25.65;10.82;;;1.50;99.90;;;;;;6150717;23;20023;-88
2022/01/08 00:35:12;;;;;;;20.63;11.20;;;1.50;99.90;;;;;;6178688;23;20365;-87
2022/01/08 00:37:41;;;;;;;19.33;9.80;;;1.50;99.90;;;;;;6201269;23;20016;-86
2022/01/08 00:40:09;;;;;;;24.60;10.32;;;1.40;99.90;;;;;;6174346;23;20031;-87
2022/01/08 00:42:47;;;;;;;24.63;10.80;;;1.40;99.90;;;;;;6175869;23;20019;-87
2022/01/08 00:45:13;;;;;;;25.05;10.15;;;1.40;99.90;;;;;;6173302;23;20489;-87
2022/01/08 00:47:39;;;;;;;31.55;12.07;;;1.30;99.90;;;;;;6146539;23;20055;-85
2022/01/08 00:50:05;;;;;;;25.25;9.88;;;1.30;99.90;;;;;;6148470;23;20023;-86
2022/01/08 00:52:31;;;;;;;26.27;10.73;;;1.40;99.90;;;;;;6172150;23;20026;-85
2022/01/08 00:54:57;;;;;;;31.17;11.32;;;1.40;99.90;;;;;;6170759;23;20021;-86
2022/01/08 01:00:29;;;;;;;32.47;10.77;;;1.40;99.90;;;;;;6177489;23;20024;-85
2022/01/08 01:02:55;;;;;;;19.10;10.10;;;1.50;99.90;;;;;;6150022;23;20115;-86
2022/01/08 01:05:21;;;;;;;22.73;9.35;;;1.50;99.90;;;;;;6118743;23;20088;-84
2022/01/08 01:07:47;;;;;;;18.50;8.68;;;1.50;99.90;;;;;;6143939;23;20099;-86
2022/01/08 01:10:15;;;;;;;26.23;8.57;;;1.50;99.90;;;;;;6172711;23;20248;-86
2022/01/08 01:12:41;;;;;;;16.25;7.90;;;1.50;99.90;;;;;;6172296;23;20024;-86
2022/01/08 01:15:10;;;;;;;19.98;8.60;;;1.50;99.90;;;;;;6148227;23;20016;-86
2022/01/08 01:17:36;;;;;;;18.25;8.60;;;1.50;99.90;;;;;;6172759;23;20079;-85
2022/01/08 01:20:01;;;;;;;21.55;9.60;;;1.50;99.90;;;;;;6149044;23;20449;-85
2022/01/08 01:22:37;;;;;;;23.23;9.77;;;1.40;99.90;;;;;;6150232;23;20128;-86
2022/01/08 01:25:08;;;;;;;26.42;9.98;;;1.40;99.90;;;;;;6149335;23;20520;-85
2022/01/08 01:49:21;;;;;;;29.50;11.77;;;1.30;99.90;;;;;;6203523;23;20123;-86
2022/01/08 01:51:47;;;;;;;33.20;13.48;;;1.30;99.90;;;;;;6178384;23;20167;-85
2022/01/08 01:54:13;;;;;;;37.60;14.45;;;1.30;99.90;;;;;;6176996;23;20048;-86
2022/01/08 01:56:40;;;;;;;35.30;14.13;;;1.20;99.90;;;;;;6172286;23;20023;-86
2022/01/08 01:59:05;;;;;;;34.53;14.40;;;1.20;99.90;;;;;;6177662;23;20023;-86
2022/01/08 02:01:32;;;;;;;38.08;14.77;;;1.20;99.90;;;;;;6152716;23;20091;-85
2022/01/08 02:03:57;;;;;;;41.45;15.18;;;1.20;99.90;;;;;;6128207;23;20104;-85
2022/01/08 02:06:24;;;;;;;42.47;15.10;;;1.10;99.90;;;;;;6128606;23;20466;-86
2022/01/08 02:08:50;;;;;;;41.83;15.43;;;1.10;99.90;;;;;;6174467;23;20389;-86
2022/01/08 02:11:19;;;;;;;42.75;16.90;;;1.10;99.90;;;;;;6149436;23;20477;-86
2022/01/08 02:13:48;;;;;;;39.35;16.30;;;1.20;99.90;;;;;;6149306;23;20030;-85
2022/01/08 02:16:21;;;;;;;41.80;17.95;;;1.20;99.90;;;;;;6122125;23;20043;-86
2022/01/08 02:18:47;;;;;;;43.00;17.85;;;1.20;99.90;;;;;;6142439;23;20102;-85
2022/01/08 02:21:26;;;;;;;45.05;17.13;;;1.20;99.90;;;;;;6175842;23;20020;-85
2022/01/08 02:23:52;;;;;;;46.38;18.52;;;1.30;99.90;;;;;;6177184;23;20024;-85
2022/01/08 02:26:17;;;;;;;47.90;18.00;;;1.30;99.90;;;;;;6149618;23;20020;-86
2022/01/08 02:28:43;;;;;;;45.15;18.00;;;1.30;99.90;;;;;;6150082;23;20159;-86
2022/01/08 02:31:21;;;;;;;44.75;17.92;;;1.30;99.90;;;;;;6170751;23;20428;-86
2022/01/08 02:34:05;;;;;;;41.95;18.17;;;1.40;99.90;;;;;;6197606;23;20039;-87
2022/01/08 02:36:59;;;;;;;43.05;17.50;;;1.30;99.90;;;;;;6175185;23;20103;-86
2022/01/08 02:39:26;;;;;;;40.50;16.63;;;1.30;99.90;;;;;;6162635;23;20301;-86
2022/01/08 02:41:58;;;;;;;37.95;17.25;;;1.30;99.90;;;;;;6197903;23;20017;-86
2022/01/08 02:44:27;;;;;;;37.08;16.73;;;1.30;99.90;;;;;;6152425;23;20352;-85
2022/01/08 02:46:53;;;;;;;43.53;16.85;;;1.20;99.90;;;;;;6151703;23;20039;-86
2022/01/08 02:49:21;;;;;;;40.20;16.38;;;1.20;99.90;;;;;;6148095;23;20016;-85
2022/01/08 02:51:48;;;;;;;37.28;16.23;;;1.20;99.90;;;;;;6148021;23;20017;-86
2022/01/08 02:54:14;;;;;;;43.35;16.67;;;1.10;99.90;;;;;;6150547;23;20452;-85
2022/01/08 02:56:42;;;;;;;45.70;16.98;;;1.10;99.90;;;;;;6147964;23;20023;-86
2022/01/08 02:59:09;;;;;;;47.58;16.15;;;1.10;99.90;;;;;;6174764;23;20008;-85
2022/01/08 03:01:35;;;;;;;35.97;16.90;;;1.10;99.90;;;;;;6174441;23;20023;-87
2022/01/08 03:04:05;;;;;;;43.95;16.75;;;1.10;99.90;;;;;;6147671;23;20023;-86
2022/01/08 03:06:31;;;;;;;39.70;17.35;;;1.00;99.90;;;;;;6172789;23;20027;-87
2022/01/08 03:08:57;;;;;;;34.05;16.73;;;1.10;99.90;;;;;;6174365;23;20012;-86
2022/01/08 03:11:23;;;;;;;44.00;17.27;;;1.00;99.90;;;;;;6147207;23;20046;-86
2022/01/08 03:13:49;;;;;;;44.17;17.38;;;1.00;99.90;;;;;;6122734;23;20378;-87
2022/01/08 03:16:15;;;;;;;42.67;16.63;;;1.00;99.90;;;;;;6172492;23;20013;-87
2022/01/08 03:18:41;;;;;;;44.30;16.90;;;0.90;99.90;;;;;;6126919;23;20018;-86
2022/01/08 03:21:15;;;;;;;40.63;17.75;;;0.90;99.90;;;;;;6126148;23;20132;-86
2022/01/08 03:23:49;;;;;;;37.63;15.88;;;0.90;99.90;;;;;;6202481;23;20024;-86
2022/01/08 03:26:21;;;;;;;45.85;16.75;;;0.80;99.90;;;;;;6172308;23;20016;-86
2022/01/08 03:28:50;;;;;;;42.30;15.63;;;0.90;99.90;;;;;;6173606;23;20028;-86
2022/01/08 03:31:17;;;;;;;46.08;17.42;;;0.80;99.90;;;;;;6148638;23;20020;-85
2022/01/08 03:33:46;;;;;;;39.20;15.80;;;0.80;99.90;;;;;;6149917;23;20293;-86
2022/01/08 03:36:13;;;;;;;50.00;17.30;;;0.80;99.90;;;;;;6171523;23;20229;-87
2022/01/08 03:38:40;;;;;;;43.92;16.05;;;0.80;99.90;;;;;;6127418;23;20016;-86
2022/01/08 03:41:06;;;;;;;43.10;15.73;;;0.70;99.90;;;;;;6147073;23;20017;-87
2022/01/08 03:43:32;;;;;;;46.60;17.02;;;0.80;99.90;;;;;;6145729;23;20035;-86
2022/01/08 03:46:00;;;;;;;40.17;16.20;;;0.80;99.90;;;;;;6147943;23;20015;-88
2022/01/08 03:48:33;;;;;;;44.35;16.45;;;0.70;99.90;;;;;;6148907;23;20013;-86
2022/01/08 03:50:59;;;;;;;40.58;15.18;;;0.70;99.90;;;;;;6172796;23;20013;-86
2022/01/08 03:53:26;;;;;;;38.97;14.48;;;0.70;99.90;;;;;;6175268;23;20013;-85
2022/01/08 03:55:53;;;;;;;34.17;14.45;;;0.60;99.90;;;;;;6173106;23;20020;-86
2022/01/08 03:58:19;;;;;;;39.40;15.02;;;0.70;99.90;;;;;;6127757;23;20009;-86
2022/01/08 04:00:46;;;;;;;41.13;16.00;;;0.70;99.90;;;;;;6174976;23;20082;-86
2022/01/08 04:03:13;;;;;;;37.17;15.80;;;0.70;99.90;;;;;;6172303;23;20032;-86
2022/01/08 04:05:38;;;;;;;37.05;14.55;;;0.70;99.90;;;;;;6151289;23;20020;-86
2022/01/08 04:08:05;;;;;;;41.75;14.07;;;0.80;99.90;;;;;;6149857;23;20027;-87
2022/01/08 04:10:30;;;;;;;36.13;14.60;;;0.80;99.90;;;;;;6170696;23;20112;-86
2022/01/08 04:13:01;;;;;;;33.75;14.52;;;0.70;99.90;;;;;;6145570;23;20104;-86
2022/01/08 04:15:32;;;;;;;42.35;14.00;;;0.80;99.90;;;;;;6124997;23;20023;-85
2022/01/08 04:17:58;;;;;;;44.53;13.93;;;0.80;99.90;;;;;;6125336;23;20013;-86
2022/01/08 04:20:24;;;;;;;34.33;12.95;;;0.80;99.90;;;;;;6173953;23;20517;-84
2022/01/08 04:22:51;;;;;;;33.65;12.60;;;0.80;99.90;;;;;;6174398;23;20515;-87
2022/01/08 04:25:19;;;;;;;33.75;12.35;;;0.80;99.90;;;;;;6142208;23;20017;-87
2022/01/08 04:27:45;;;;;;;28.42;12.32;;;0.80;99.90;;;;;;6169286;23;20087;-86
2022/01/08 04:30:11;;;;;;;36.33;12.63;;;0.80;99.90;;;;;;6168749;23;20051;-86
2022/01/08 04:32:40;;;;;;;34.63;12.70;;;0.70;99.90;;;;;;6172391;23;20051;-87
2022/01/08 04:35:08;;;;;;;32.17;11.30;;;0.70;99.90;;;;;;6168270;23;20020;-86
2022/01/08 04:37:43;;;;;;;30.88;10.98;;;0.70;99.90;;;;;;6146421;23;20350;-87
2022/01/08 04:40:10;;;;;;;31.30;10.73;;;0.70;99.90;;;;;;6144113;23;20016;-87
2022/01/08 04:42:35;;;;;;;29.83;11.38;;;0.70;99.90;;;;;;6119725;23;20059;-86
2022/01/08 04:45:01;;;;;;;37.47;10.65;;;0.70;99.90;;;;;;6142423;23;20051;-87
2022/01/08 04:47:30;;;;;;;35.42;11.65;;;0.70;99.90;;;;;;6144768;23;20020;-87
2022/01/08 04:50:07;;;;;;;28.70;11.05;;;0.70;99.90;;;;;;6166770;23;20063;-86
2022/01/08 04:52:48;;;;;;;28.17;11.23;;;0.70;99.90;;;;;;6196343;23;20319;-87
2022/01/08 04:55:15;;;;;;;32.60;11.32;;;0.70;99.90;;;;;;6193960;23;20027;-86
2022/01/08 04:57:40;;;;;;;34.72;12.40;;;0.70;99.90;;;;;;6171101;23;20016;-87
2022/01/08 05:00:07;;;;;;;30.83;13.25;;;0.70;99.90;;;;;;6170029;23;20020;-87
2022/01/08 05:02:35;;;;;;;33.47;13.68;;;0.70;99.90;;;;;;6168006;23;20088;-87
2022/01/08 05:05:01;;;;;;;41.30;15.05;;;0.70;99.90;;;;;;6145551;23;20048;-86
2022/01/08 05:07:30;;;;;;;38.53;14.63;;;0.80;99.90;;;;;;6170476;23;20020;-85
2022/01/08 05:09:56;;;;;;;40.22;14.75;;;0.80;99.90;;;;;;6165952;23;20024;-87
2022/01/08 05:12:24;;;;;;;44.08;15.20;;;0.80;99.90;;;;;;6167367;23;20066;-85
2022/01/08 05:14:55;;;;;;;41.75;15.20;;;0.80;99.90;;;;;;6119679;23;20124;-87
2022/01/08 05:17:28;;;;;;;42.70;15.57;;;0.80;99.90;;;;;;6167242;23;20016;-85
2022/01/08 05:19:56;;;;;;;42.63;15.15;;;0.80;99.90;;;;;;6172912;23;20059;-85
2022/01/08 05:22:27;;;;;;;51.97;17.30;;;0.70;99.90;;;;;;6172246;23;20008;-87
2022/01/08 05:24:54;;;;;;;39.83;14.95;;;0.80;99.90;;;;;;6168098;23;20050;-85
2022/01/08 05:27:28;;;;;;;36.53;13.18;;;0.80;99.90;;;;;;6147823;23;20070;-88
2022/01/08 05:29:55;;;;;;;52.00;16.05;;;0.80;99.90;;;;;;6121440;23;20024;-86
2022/01/08 05:32:20;;;;;;;45.97;15.40;;;0.80;99.90;;;;;;6145582;23;20017;-87
2022/01/08 05:34:59;;;;;;;45.92;14.65;;;0.80;99.90;;;;;;6166952;23;20027;-86
2022/01/08 05:37:45;;;;;;;33.65;13.38;;;0.70;99.90;;;;;;6168992;23;20434;-86
2022/01/08 05:40:13;;;;;;;38.80;14.85;;;0.70;99.90;;;;;;6145440;23;20365;-87
2022/01/08 05:42:47;;;;;;;46.03;13.73;;;0.70;99.90;;;;;;6144308;23;20429;-87
2022/01/08 05:45:13;;;;;;;36.58;13.32;;;0.60;99.90;;;;;;6171018;23;20095;-86
2022/01/08 05:48:05;;;;;;;41.08;12.95;;;0.60;99.90;;;;;;6146245;23;20068;-88
2022/01/08 05:50:46;;;;;;;28.25;12.18;;;0.60;99.90;;;;;;6158767;23;20027;-87
2022/01/08 05:53:47;;;;;;;29.08;11.73;;;0.50;99.90;;;;;;6145950;23;20021;-86
2022/01/08 05:56:16;;;;;;;39.63;13.57;;;0.50;99.90;;;;;;6170422;23;20127;-87
2022/01/08 05:58:52;;;;;;;;;;;;;;;;;;;;;
2022/01/08 06:01:21;;;;;;;43.47;14.57;;;0.50;99.90;;;;;;6189021;23;20469;-87
2022/01/08 06:04:30;;;;;;;41.23;13.80;;;0.50;99.90;;;;;;6110788;23;20023;-88
2022/01/08 06:07:07;;;;;;;41.35;15.10;;;0.40;99.90;;;;;;6174748;23;20247;-87
2022/01/08 06:09:36;;;;;;;37.85;14.82;;;0.40;99.90;;;;;;6160693;23;20370;-85
2022/01/08 06:12:10;;;;;;;44.20;14.05;;;0.40;99.90;;;;;;6138588;23;20229;-87
2022/01/08 06:14:38;;;;;;;41.28;14.02;;;0.40;99.90;;;;;;6135566;23;20020;-87
2022/01/08 06:17:07;;;;;;;39.70;14.65;;;0.30;99.90;;;;;;6158070;23;20318;-86
2022/01/08 06:19:33;;;;;;;38.17;13.55;;;0.30;99.90;;;;;;6160832;23;20278;-87
2022/01/08 06:22:00;;;;;;;38.22;13.77;;;0.30;99.90;;;;;;6137282;23;20405;-86
2022/01/08 06:24:26;;;;;;;35.72;13.40;;;0.30;99.90;;;;;;6110058;23;20479;-87
2022/01/08 06:26:55;;;;;;;43.67;14.95;;;0.30;99.90;;;;;;6158979;23;20440;-88
2022/01/08 06:29:21;;;;;;;39.30;13.93;;;0.30;99.90;;;;;;6133336;23;20068;-85
2022/01/08 06:31:57;;;;;;;38.60;14.27;;;0.20;99.90;;;;;;6137182;23;20056;-86
2022/01/08 06:34:23;;;;;;;35.92;13.50;;;0.30;99.90;;;;;;6089764;23;20362;-86
2022/01/08 06:36:52;;;;;;;39.75;13.23;;;0.30;99.90;;;;;;6132116;23;20017;-86
2022/01/08 06:39:18;;;;;;;37.05;13.30;;;0.30;99.90;;;;;;6113639;23;20013;-86
2022/01/08 06:41:44;;;;;;;49.63;13.95;;;0.30;99.90;;;;;;6108476;23;20395;-86
2022/01/08 06:44:11;;;;;;;36.75;12.70;;;0.30;99.90;;;;;;6106671;23;20020;-85
2022/01/08 06:46:37;;;;;;;35.58;13.13;;;0.30;99.90;;;;;;6084469;23;20557;-87
2022/01/08 06:49:03;;;;;;;40.58;12.77;;;0.30;99.90;;;;;;6133228;23;20020;-87
2022/01/08 06:51:28;;;;;;;33.60;12.68;;;0.30;99.90;;;;;;6162488;23;20020;-86
2022/01/08 06:53:57;;;;;;;38.35;12.60;;;0.30;99.90;;;;;;6108488;23;20048;-86
2022/01/08 06:56:23;;;;;;;37.97;12.80;;;0.30;99.90;;;;;;6102529;23;20417;-86
2022/01/08 06:58:48;;;;;;;45.97;13.13;;;0.20;99.90;;;;;;6106558;23;20392;-87
2022/01/08 07:01:17;;;;;;;36.83;12.43;;;0.20;99.90;;;;;;6115730;23;20024;-86
2022/01/08 07:03:43;;;;;;;28.23;11.15;;;0.20;99.90;;;;;;6083505;23;20013;-85
2022/01/08 07:06:11;;;;;;;35.13;12.18;;;0.20;99.90;;;;;;6109102;23;20020;-86
2022/01/08 07:08:40;;;;;;;38.83;11.70;;;0.20;99.90;;;;;;6088255;23;20012;-87
2022/01/08 07:11:10;;;;;;;31.38;12.77;;;0.20;99.90;;;;;;6131158;23;20017;-86
2022/01/08 07:13:36;;;;;;;42.40;13.13;;;0.30;99.90;;;;;;6114251;23;20017;-86
2022/01/08 07:16:08;;;;;;;36.28;12.07;;;0.20;99.90;;;;;;6110584;23;20028;-86
2022/01/08 07:18:33;;;;;;;34.90;12.90;;;0.20;99.90;;;;;;6134228;23;20016;-87
2022/01/08 07:21:00;;;;;;;40.92;14.70;;;0.20;99.90;;;;;;6127161;23;20019;-85
2022/01/08 07:23:26;;;;;;;33.20;12.57;;;0.20;99.90;;;;;;6155238;23;20021;-86
2022/01/08 07:25:51;;;;;;;40.40;15.05;;;0.20;99.90;;;;;;6132354;23;20024;-86
2022/01/08 07:28:17;;;;;;;41.25;15.45;;;0.20;99.90;;;;;;6131756;23;20017;-86
2022/01/08 07:30:44;;;;;;;41.55;15.65;;;0.20;99.90;;;;;;6131307;23;20020;-86
2022/01/08 07:33:10;;;;;;;41.83;14.45;;;0.20;99.90;;;;;;6113391;23;20021;-87
2022/01/08 07:35:36;;;;;;;36.33;13.75;;;0.20;99.90;;;;;;6133125;23;20342;-88
2022/01/08 07:38:05;;;;;;;36.17;13.27;;;0.20;99.90;;;;;;6157111;23;20509;-88
2022/01/08 07:40:34;;;;;;;41.95;14.18;;;0.20;99.90;;;;;;6137919;23;20370;-87
2022/01/08 07:43:00;;;;;;;39.55;14.13;;;0.20;99.90;;;;;;6162031;23;20111;-87
2022/01/08 07:45:26;;;;;;;34.55;12.45;;;0.20;99.90;;;;;;6135940;23;20125;-87
2022/01/08 07:47:52;;;;;;;37.58;13.30;;;0.20;99.90;;;;;;6144098;23;20083;-87
2022/01/08 07:50:18;;;;;;;34.05;13.63;;;0.30;99.90;;;;;;6161857;23;20020;-86
2022/01/08 07:53:21;;;;;;;33.10;14.10;;;0.30;99.90;;;;;;6138381;23;20363;-87
2022/01/08 07:56:09;;;;;;;34.88;13.30;;;0.30;99.90;;;;;;6135429;23;20025;-87
2022/01/08 07:58:36;;;;;;;28.67;12.27;;;0.30;99.90;;;;;;6156449;23;20095;-87
2022/01/08 08:01:08;;;;;;;37.67;13.00;;;0.30;99.90;;;;;;6159436;23;20365;-87
2022/01/08 08:06:48;;;;;;;38.67;13.23;;;0.30;99.90;;;;;;6160364;23;20097;-87
2022/01/08 08:09:15;;;;;;;33.80;12.23;;;0.30;99.90;;;;;;6157558;23;20016;-87
2022/01/08 08:11:41;;;;;;;42.60;12.77;;;0.30;99.90;;;;;;6156010;23;20056;-87
2022/01/08 08:14:07;;;;;;;35.92;13.07;;;0.30;99.90;;;;;;6130582;23;20527;-87
2022/01/08 08:16:36;;;;;;;35.17;12.73;;;0.40;99.90;;;;;;6158333;23;20024;-88
2022/01/08 08:19:05;;;;;;;39.83;12.10;;;0.40;99.90;;;;;;6137648;23;20369;-88
2022/01/08 08:21:30;;;;;;;32.05;12.63;;;0.40;99.90;;;;;;6131036;23;20025;-86
2022/01/08 08:23:56;;;;;;;28.02;13.93;;;0.40;99.90;;;;;;6152820;23;20518;-85
2022/01/08 08:26:22;;;;;;;27.40;12.73;;;0.40;99.90;;;;;;6104900;23;20090;-87
2022/01/08 08:28:48;;;;;;;34.65;11.30;;;0.40;99.90;;;;;;6132497;23;20663;-87
2022/01/08 08:31:16;;;;;;;32.33;10.40;;;0.50;99.90;;;;;;6136624;23;20024;-87
2022/01/08 08:33:42;;;;;;;27.85;10.70;;;0.50;99.90;;;;;;6109743;23;20012;-85
2022/01/08 08:36:17;;;;;;;31.17;11.07;;;0.50;99.90;;;;;;6108380;23;20546;-87
2022/01/08 08:38:42;;;;;;;20.30;9.25;;;0.60;99.90;;;;;;6131633;23;20055;-86
2022/01/08 08:41:10;;;;;;;22.48;9.95;;;0.60;99.90;;;;;;6157472;23;20016;-85
2022/01/08 08:43:36;;;;;;;34.17;11.02;;;0.70;99.90;;;;;;6135235;23;20017;-85
2022/01/08 08:46:02;;;;;;;28.20;10.68;;;0.80;99.90;;;;;;6133514;23;20075;-86
2022/01/08 08:48:28;;;;;;;24.35;9.45;;;0.80;99.90;;;;;;6159581;23;20055;-87
2022/01/08 08:50:54;;;;;;;29.17;10.07;;;0.90;99.90;;;;;;6156741;23;20043;-87
2022/01/08 08:53:20;;;;;;;24.25;9.90;;;0.90;99.90;;;;;;6130510;23;20703;-87
2022/01/08 08:55:47;;;;;;;28.23;10.18;;;1.00;99.90;;;;;;6159051;23;20047;-86
2022/01/08 08:58:16;;;;;;;26.25;10.32;;;1.00;99.90;;;;;;6170844;23;20457;-89
2022/01/08 09:00:42;;;;;;;22.88;10.00;;;1.00;99.90;;;;;;6141829;23;20070;-89
2022/01/08 09:03:15;;;;;;;25.35;10.88;;;1.00;99.90;;;;;;6136986;23;20017;-86
2022/01/08 09:05:41;;;;;;;19.95;10.13;;;1.00;99.90;;;;;;6164755;23;20023;-87
2022/01/08 09:08:07;;;;;;;24.23;11.38;;;1.10;99.90;;;;;;6138407;23;20021;-87
2022/01/08 09:10:33;;;;;;;19.92;8.88;;;1.10;99.90;;;;;;6146283;23;20394;-87
2022/01/08 09:12:59;;;;;;;21.88;9.10;;;1.10;99.90;;;;;;6140445;23;20013;-87
2022/01/08 09:15:26;;;;;;;20.00;10.02;;;1.10;99.90;;;;;;6165153;23;20159;-87
2022/01/08 09:17:57;;;;;;;25.42;11.07;;;1.10;99.90;;;;;;6145787;23;20008;-88
2022/01/08 09:20:28;;;;;;;30.80;11.00;;;1.20;99.90;;;;;;6165405;23;20016;-89
2022/01/08 09:22:54;;;;;;;28.85;10.60;;;1.20;99.90;;;;;;6135609;23;20019;-89
2022/01/08 09:25:20;;;;;;;27.02;10.82;;;1.40;99.90;;;;;;6139840;23;20508;-88
2022/01/08 09:27:46;;;;;;;21.25;8.90;;;1.30;99.90;;;;;;6140553;23;20020;-91
2022/01/08 09:30:12;;;;;;;26.02;10.75;;;1.40;99.90;;;;;;6141867;23;20017;-89
2022/01/08 09:32:40;;;;;;;25.90;9.10;;;1.50;99.90;;;;;;6144649;23;20480;-85
2022/01/08 09:35:07;;;;;;;19.27;9.70;;;1.50;99.90;;;;;;6141300;23;20087;-90
2022/01/08 09:37:33;;;;;;;29.92;9.73;;;1.60;99.90;;;;;;6140543;23;20021;-88
2022/01/08 09:40:02;;;;;;;29.95;8.85;;;1.60;99.90;;;;;;6144174;23;20013;-89
2022/01/08 09:42:28;;;;;;;24.52;10.52;;;1.70;99.90;;;;;;6115985;23;20016;-88
2022/01/08 09:44:54;;;;;;;25.35;10.35;;;1.80;99.90;;;;;;6140329;23;20025;-91
2022/01/08 09:47:20;;;;;;;18.50;9.82;;;1.80;99.90;;;;;;6176021;23;20576;-88
2022/01/08 09:49:46;;;;;;;19.90;8.52;;;1.90;99.90;;;;;;6159056;23;20358;-89
2022/01/08 09:52:12;;;;;;;20.63;9.90;;;1.90;99.90;;;;;;6147437;23;20071;-89
2022/01/08 09:54:39;;;;;;;15.43;8.63;;;2.00;99.90;;;;;;6145437;23;20027;-87
2022/01/08 09:57:05;;;;;;;22.05;9.50;;;1.90;99.90;;;;;;6146017;23;20450;-85
2022/01/08 09:59:31;;;;;;;21.88;10.40;;;2.00;99.90;;;;;;6171228;23;20016;-85
2022/01/08 10:02:02;;;;;;;21.52;10.00;;;2.00;99.90;;;;;;6145402;23;20528;-88
2022/01/08 10:04:36;;;;;;;24.45;11.18;;;1.90;99.90;;;;;;6169007;23;20020;-87
2022/01/08 10:07:19;;;;;;;21.60;10.32;;;1.90;99.90;;;;;;6170967;23;20030;-86
2022/01/08 10:10:20;;;;;;;26.35;10.73;;;2.00;99.90;;;;;;6178218;23;20035;-83
2022/01/08 10:12:54;;;;;;;23.88;11.32;;;2.00;99.90;;;;;;6077780;23;20423;-89
2022/01/08 10:18:36;;;;;;;26.80;11.25;;;2.10;99.90;;;;;;6198709;23;20020;-90
2022/01/08 10:21:23;;;;;;;37.40;14.05;;;2.10;99.90;;;;;;6177774;23;20073;-87
2022/01/08 10:24:08;;;;;;;32.97;13.68;;;2.20;99.90;;;;;;6154699;23;20016;-87
2022/01/08 10:26:40;;;;;;;27.55;12.98;;;2.20;99.90;;;;;;6174333;23;20020;-87
2022/01/08 10:29:11;;;;;;;28.67;12.85;;;2.30;99.90;;;;;;6178834;23;20012;-88
2022/01/08 10:31:40;;;;;;;29.80;13.50;;;2.30;99.90;;;;;;6180258;23;20012;-86
2022/01/08 10:34:08;;;;;;;29.92;13.25;;;2.30;99.90;;;;;;6179222;23;20017;-89
2022/01/08 10:36:36;;;;;;;26.25;13.20;;;2.30;99.90;;;;;;6182893;23;20008;-86
2022/01/08 10:39:22;;;;;;;26.23;13.90;;;2.30;99.90;;;;;;6181782;23;20084;-88
2022/01/08 10:41:51;;;;;;;26.83;14.27;;;2.40;99.90;;;;;;6183868;23;20012;-86
2022/01/08 10:44:23;;;;;;;25.25;13.40;;;2.40;99.90;;;;;;6178178;23;20480;-86
2022/01/08 10:46:51;;;;;;;27.15;14.90;;;2.40;99.90;;;;;;6173931;23;20019;-87
2022/01/08 10:49:37;;;;;;;24.23;13.68;;;2.50;99.90;;;;;;6175285;23;20532;-86
2022/01/08 10:52:09;;;;;;;27.90;13.65;;;2.50;99.90;;;;;;6175330;23;20351;-89
2022/01/08 10:54:38;;;;;;;38.97;16.30;;;2.60;99.90;;;;;;6183258;23;20777;-86
2022/01/08 10:57:17;;;;;;;;;;;;;;;;;;;;;
2022/01/08 10:59:45;;;;;;;30.65;14.95;;;2.70;99.90;;;;;;6208973;23;20423;-85
2022/01/08 11:02:15;;;;;;;28.15;14.43;;;2.70;99.90;;;;;;6176098;23;20137;-88
2022/01/08 11:04:48;;;;;;;25.95;14.05;;;2.70;99.90;;;;;;6150678;23;20024;-85
2022/01/08 11:07:16;;;;;;;22.00;12.48;;;2.70;99.90;;;;;;6176047;23;20025;-87
2022/01/08 11:09:44;;;;;;;31.48;15.57;;;2.70;99.90;;;;;;6178393;23;20016;-88
2022/01/08 11:12:16;;;;;;;25.27;12.52;;;2.70;99.90;;;;;;6175407;23;20496;-86
2022/01/08 11:17:24;;;;;;;25.52;13.63;;;2.70;99.90;;;;;;6198555;23;20588;-85
2022/01/08 11:19:59;;;;;;;27.48;14.68;;;2.70;99.90;;;;;;6170914;23;20624;-87
2022/01/08 11:22:28;;;;;;;27.00;15.27;;;2.70;99.90;;;;;;6173338;23;20073;-87
2022/01/08 11:25:15;;;;;;;36.33;15.82;;;2.70;99.90;;;;;;6174934;23;20017;-87
2022/01/08 11:27:45;;;;;;;29.33;15.25;;;2.70;99.90;;;;;;6172149;23;20086;-87
2022/01/08 11:30:19;;;;;;;31.83;13.70;;;2.70;99.90;;;;;;6176315;23;20046;-87
2022/01/08 11:32:46;;;;;;;24.83;14.55;;;2.70;99.90;;;;;;6171557;23;20024;-87
2022/01/08 11:35:13;;;;;;;36.08;15.35;;;2.70;99.90;;;;;;6154414;23;20013;-86
2022/01/08 11:37:45;;;;;;;29.85;13.32;;;2.80;99.90;;;;;;6172541;23;20473;-85
2022/01/08 11:40:13;;;;;;;35.00;14.48;;;2.90;99.90;;;;;;6153587;23;20016;-86
2022/01/08 11:42:40;;;;;;;29.58;13.95;;;2.90;99.90;;;;;;6176680;23;20024;-85
2022/01/08 11:45:09;;;;;;;25.38;12.65;;;2.90;99.90;;;;;;6175693;23;20020;-86
2022/01/08 11:47:35;;;;;;;31.95;13.25;;;3.00;99.90;;;;;;6175631;23;20020;-88
2022/01/08 11:50:05;;;;;;;21.27;13.98;;;3.00;99.90;;;;;;6153277;23;20240;-86
2022/01/08 11:52:31;;;;;;;26.10;13.32;;;3.10;99.90;;;;;;6178699;23;20031;-86
2022/01/08 11:54:56;;;;;;;40.30;15.82;;;3.10;99.90;;;;;;6148450;23;20170;-87
2022/01/08 11:57:26;;;;;;;34.67;15.82;;;3.10;99.90;;;;;;6154270;23;20104;-87
2022/01/08 11:59:58;;;;;;;32.05;15.95;;;3.20;99.90;;;;;;6176679;23;20369;-84
2022/01/08 12:02:38;;;;;;;28.55;17.23;;;3.20;99.90;;;;;;6177985;23;20543;-85
2022/01/08 12:05:05;;;;;;;29.25;16.08;;;3.20;99.90;;;;;;6177598;23;20021;-86
2022/01/08 12:07:35;;;;;;;30.00;16.50;;;3.20;99.90;;;;;;6172927;23;20024;-84
2022/01/08 12:10:10;;;;;;;33.83;16.20;;;3.30;99.90;;;;;;6151063;23;20016;-84
2022/01/08 12:12:52;;;;;;;31.65;17.75;;;3.30;99.90;;;;;;6177359;23;20021;-85
2022/01/08 12:15:38;;;;;;;35.60;17.92;;;3.30;99.90;;;;;;6170980;23;20023;-87
2022/01/08 12:18:04;;;;;;;31.27;17.90;;;3.30;99.90;;;;;;6174506;23;20016;-84
2022/01/08 12:20:39;;;;;;;34.20;18.98;;;3.30;99.90;;;;;;6176052;23;20095;-86
2022/01/08 12:23:30;;;;;;;33.23;19.00;;;3.30;99.90;;;;;;6168209;23;20023;-85
2022/01/08 12:26:05;;;;;;;36.67;20.95;;;3.30;99.90;;;;;;6170620;23;20244;-87
2022/01/08 12:28:46;;;;;;;41.30;24.38;;;3.30;99.90;;;;;;6177763;23;20020;-85
2022/01/08 12:31:44;;;;;;;40.42;22.33;;;3.30;99.90;;;;;;6172878;23;20595;-86
2022/01/08 12:34:22;;;;;;;37.03;22.92;;;3.30;99.90;;;;;;6123437;23;20016;-86
2022/01/08 12:36:54;;;;;;;46.78;25.63;;;3.30;99.90;;;;;;6159096;23;20016;-85
2022/01/08 12:39:44;;;;;;;41.95;24.58;;;3.20;99.90;;;;;;6160290;23;20013;-87
2022/01/08 12:42:19;;;;;;;42.72;24.58;;;3.30;99.90;;;;;;6177948;23;20524;-85
2022/01/08 12:45:06;;;;;;;36.67;22.48;;;3.30;99.90;;;;;;6174509;23;20042;-84
2022/01/08 12:47:56;;;;;;;38.55;23.85;;;3.30;99.90;;;;;;6173633;23;20016;-85
2022/01/08 12:50:28;;;;;;;39.10;23.13;;;3.30;99.90;;;;;;6174597;23;20016;-87
2022/01/08 12:53:06;;;;;;;41.63;22.15;;;3.30;99.90;;;;;;6172017;23;20016;-88
2022/01/08 12:55:38;;;;;;;35.25;22.98;;;3.30;99.90;;;;;;6173698;23;20009;-82
2022/01/08 12:58:23;;;;;;;40.22;23.23;;;3.30;99.90;;;;;;6171842;23;20017;-86
2022/01/08 13:00:59;;;;;;;43.70;27.33;;;3.30;99.90;;;;;;6177820;23;20016;-85
2022/01/08 13:03:29;;;;;;;47.50;27.13;;;3.30;99.90;;;;;;6172275;23;20023;-86
2022/01/08 13:05:55;;;;;;;44.85;26.00;;;3.20;99.90;;;;;;6148984;23;20031;-86
2022/01/08 13:08:23;;;;;;;46.80;26.98;;;3.20;99.90;;;;;;6173806;23;20205;-87
2022/01/08 13:10:57;;;;;;;44.33;26.25;;;3.20;99.90;;;;;;6176278;23;20249;-85
2022/01/08 13:13:24;;;;;;;42.30;26.33;;;3.30;99.90;;;;;;6178866;23;20016;-85
2022/01/08 13:15:54;;;;;;;50.72;23.83;;;3.20;99.90;;;;;;6153737;23;20019;-85
2022/01/08 13:18:24;;;;;;;42.67;25.20;;;3.20;99.90;;;;;;6170040;23;20020;-86
2022/01/08 13:21:05;;;;;;;44.22;25.98;;;3.20;99.90;;;;;;6173509;23;20458;-85
2022/01/08 13:23:31;;;;;;;50.17;25.73;;;3.20;99.90;;;;;;6173584;23;20031;-84
2022/01/08 13:25:58;;;;;;;51.25;28.17;;;3.20;99.90;;;;;;6147127;23;20064;-84
2022/01/08 13:28:25;;;;;;;46.70;25.90;;;3.10;99.90;;;;;;6169195;23;20170;-84
2022/01/08 13:30:52;;;;;;;47.83;26.67;;;3.20;99.90;;;;;;6151194;23;20052;-86